sensor_id;sensor_type;location;lat;lon;timestamp;P1;durP1;ratioP1;P2;durP2;ratioP2
59587;SDS011;45412;54.472;18.464;2022-11-14T00:01:37;10.80;;;4.40;;
59587;SDS011;45412;54.472;18.464;2022-11-14T00:04:47;9.60;;;4.50;;
59587;SDS011;45412;54.472;18.464;2022-11-14T00:07:54;11.80;;;5.00;;
59587;SDS011;45412;54.472;18.464;2022-11-14T00:11:00;9.90;;;4.40;;
59587;SDS011;45412;54.472;18.464;2022-11-14T00:14:10;12.60;;;5.00;;
59587;SDS011;45412;54.472;18.464;2022-11-14T00:17:17;13.80;;;5.20;;
59587;SDS011;45412;54.472;18.464;2022-11-14T00:20:24;10.70;;;5.10;;
59587;SDS011;45412;54.472;18.464;2022-11-14T00:23:31;11.50;;;5.10;;
59587;SDS011;45412;54.472;18.464;2022-11-14T00:26:37;11.30;;;5.30;;
59587;SDS011;45412;54.472;18.464;2022-11-14T00:29:44;10.50;;;4.90;;
59587;SDS011;45412;54.472;18.464;2022-11-14T00:32:50;12.40;;;5.00;;
59587;SDS011;45412;54.472;18.464;2022-11-14T00:35:56;13.60;;;5.10;;
59587;SDS011;45412;54.472;18.464;2022-11-14T00:39:03;11.70;;;4.40;;
59587;SDS011;45412;54.472;18.464;2022-11-14T00:42:09;12.60;;;5.00;;
59587;SDS011;45412;54.472;18.464;2022-11-14T00:45:15;9.80;;;4.50;;
59587;SDS011;45412;54.472;18.464;2022-11-14T00:48:22;11.50;;;4.90;;
59587;SDS011;45412;54.472;18.464;2022-11-14T00:51:28;11.60;;;5.40;;
59587;SDS011;45412;54.472;18.464;2022-11-14T00:54:38;12.80;;;4.20;;
59587;SDS011;45412;54.472;18.464;2022-11-14T00:57:45;12.20;;;5.30;;
59587;SDS011;45412;54.472;18.464;2022-11-14T01:00:51;10.90;;;5.20;;
59587;SDS011;45412;54.472;18.464;2022-11-14T01:03:58;12.20;;;5.50;;
59587;SDS011;45412;54.472;18.464;2022-11-14T01:07:04;12.30;;;5.70;;
59587;SDS011;45412;54.472;18.464;2022-11-14T01:10:10;13.40;;;6.20;;
59587;SDS011;45412;54.472;18.464;2022-11-14T01:13:17;11.90;;;5.50;;
59587;SDS011;45412;54.472;18.464;2022-11-14T01:16:23;11.00;;;5.90;;
59587;SDS011;45412;54.472;18.464;2022-11-14T01:19:29;15.40;;;6.70;;
59587;SDS011;45412;54.472;18.464;2022-11-14T01:22:36;15.60;;;6.90;;
59587;SDS011;45412;54.472;18.464;2022-11-14T01:25:42;12.90;;;6.60;;
59587;SDS011;45412;54.472;18.464;2022-11-14T01:28:49;12.80;;;7.00;;
59587;SDS011;45412;54.472;18.464;2022-11-14T01:31:56;15.60;;;7.20;;
59587;SDS011;45412;54.472;18.464;2022-11-14T01:35:02;14.60;;;6.20;;
59587;SDS011;45412;54.472;18.464;2022-11-14T01:38:13;13.10;;;5.80;;
59587;SDS011;45412;54.472;18.464;2022-11-14T01:41:21;13.10;;;5.90;;
59587;SDS011;45412;54.472;18.464;2022-11-14T01:44:57;12.60;;;6.10;;
59587;SDS011;45412;54.472;18.464;2022-11-14T01:48:03;11.80;;;5.60;;
59587;SDS011;45412;54.472;18.464;2022-11-14T01:51:23;10.80;;;4.90;;
59587;SDS011;45412;54.472;18.464;2022-11-14T01:54:37;11.50;;;4.30;;
59587;SDS011;45412;54.472;18.464;2022-11-14T01:57:46;11.90;;;4.60;;
59587;SDS011;45412;54.472;18.464;2022-11-14T02:00:53;10.60;;;4.10;;
59587;SDS011;45412;54.472;18.464;2022-11-14T02:04:01;9.80;;;4.10;;
59587;SDS011;45412;54.472;18.464;2022-11-14T02:07:12;10.60;;;3.80;;
59587;SDS011;45412;54.472;18.464;2022-11-14T02:10:20;8.90;;;3.70;;
59587;SDS011;45412;54.472;18.464;2022-11-14T02:13:27;9.40;;;3.80;;
59587;SDS011;45412;54.472;18.464;2022-11-14T02:16:34;8.80;;;4.00;;
59587;SDS011;45412;54.472;18.464;2022-11-14T02:19:49;10.50;;;4.00;;
59587;SDS011;45412;54.472;18.464;2022-11-14T02:22:58;10.00;;;4.00;;
59587;SDS011;45412;54.472;18.464;2022-11-14T02:26:04;8.80;;;3.50;;
59587;SDS011;45412;54.472;18.464;2022-11-14T02:29:10;9.20;;;3.80;;
59587;SDS011;45412;54.472;18.464;2022-11-14T02:32:17;9.40;;;3.70;;
59587;SDS011;45412;54.472;18.464;2022-11-14T02:35:23;10.30;;;3.70;;
59587;SDS011;45412;54.472;18.464;2022-11-14T02:38:29;8.70;;;3.30;;
59587;SDS011;45412;54.472;18.464;2022-11-14T02:41:37;8.50;;;3.20;;
59587;SDS011;45412;54.472;18.464;2022-11-14T02:44:46;10.50;;;3.60;;
59587;SDS011;45412;54.472;18.464;2022-11-14T02:47:53;9.10;;;3.30;;
59587;SDS011;45412;54.472;18.464;2022-11-14T02:50:59;11.30;;;3.80;;
59587;SDS011;45412;54.472;18.464;2022-11-14T02:54:05;9.90;;;3.50;;
59587;SDS011;45412;54.472;18.464;2022-11-14T02:57:11;8.50;;;3.20;;
59587;SDS011;45412;54.472;18.464;2022-11-14T03:00:18;8.30;;;3.10;;
59587;SDS011;45412;54.472;18.464;2022-11-14T03:03:24;10.70;;;3.40;;
59587;SDS011;45412;54.472;18.464;2022-11-14T03:06:31;9.80;;;3.30;;
59587;SDS011;45412;54.472;18.464;2022-11-14T03:09:37;9.20;;;3.20;;
59587;SDS011;45412;54.472;18.464;2022-11-14T03:12:43;9.80;;;3.80;;
59587;SDS011;45412;54.472;18.464;2022-11-14T03:15:50;9.10;;;2.90;;
59587;SDS011;45412;54.472;18.464;2022-11-14T03:18:56;9.90;;;3.50;;
59587;SDS011;45412;54.472;18.464;2022-11-14T03:22:02;10.90;;;4.10;;
59587;SDS011;45412;54.472;18.464;2022-11-14T03:25:09;10.60;;;4.00;;
59587;SDS011;45412;54.472;18.464;2022-11-14T03:28:18;10.10;;;4.70;;
59587;SDS011;45412;54.472;18.464;2022-11-14T03:31:24;12.50;;;4.60;;
59587;SDS011;45412;54.472;18.464;2022-11-14T03:34:30;10.40;;;4.50;;
59587;SDS011;45412;54.472;18.464;2022-11-14T03:37:37;11.40;;;5.00;;
59587;SDS011;45412;54.472;18.464;2022-11-14T03:40:43;12.40;;;4.70;;
59587;SDS011;45412;54.472;18.464;2022-11-14T03:43:50;10.00;;;3.90;;
59587;SDS011;45412;54.472;18.464;2022-11-14T03:46:56;11.20;;;4.70;;
59587;SDS011;45412;54.472;18.464;2022-11-14T03:50:03;10.80;;;5.20;;
59587;SDS011;45412;54.472;18.464;2022-11-14T03:53:10;12.20;;;5.20;;
59587;SDS011;45412;54.472;18.464;2022-11-14T03:56:16;10.60;;;4.90;;
59587;SDS011;45412;54.472;18.464;2022-11-14T03:59:22;9.50;;;4.50;;
59587;SDS011;45412;54.472;18.464;2022-11-14T04:02:29;12.90;;;5.00;;
59587;SDS011;45412;54.472;18.464;2022-11-14T04:05:35;10.80;;;5.00;;
59587;SDS011;45412;54.472;18.464;2022-11-14T04:08:42;9.90;;;4.70;;
59587;SDS011;45412;54.472;18.464;2022-11-14T04:11:48;11.60;;;4.80;;
59587;SDS011;45412;54.472;18.464;2022-11-14T04:14:54;12.60;;;5.50;;
59587;SDS011;45412;54.472;18.464;2022-11-14T04:18:00;12.50;;;5.50;;
59587;SDS011;45412;54.472;18.464;2022-11-14T04:21:07;11.70;;;5.70;;
59587;SDS011;45412;54.472;18.464;2022-11-14T04:24:13;10.90;;;5.10;;
59587;SDS011;45412;54.472;18.464;2022-11-14T04:27:19;12.70;;;5.20;;
59587;SDS011;45412;54.472;18.464;2022-11-14T04:30:26;12.60;;;5.50;;
59587;SDS011;45412;54.472;18.464;2022-11-14T04:33:39;14.80;;;6.60;;
59587;SDS011;45412;54.472;18.464;2022-11-14T04:36:45;14.90;;;6.40;;
59587;SDS011;45412;54.472;18.464;2022-11-14T04:39:52;14.20;;;7.00;;
59587;SDS011;45412;54.472;18.464;2022-11-14T04:42:59;13.50;;;5.90;;
59587;SDS011;45412;54.472;18.464;2022-11-14T04:46:05;13.90;;;6.00;;
59587;SDS011;45412;54.472;18.464;2022-11-14T04:49:12;13.70;;;6.60;;
59587;SDS011;45412;54.472;18.464;2022-11-14T04:52:18;12.40;;;6.10;;
59587;SDS011;45412;54.472;18.464;2022-11-14T04:55:24;15.80;;;6.60;;
59587;SDS011;45412;54.472;18.464;2022-11-14T04:58:31;14.70;;;6.50;;
59587;SDS011;45412;54.472;18.464;2022-11-14T05:01:38;13.80;;;6.70;;
59587;SDS011;45412;54.472;18.464;2022-11-14T05:04:45;13.70;;;6.40;;
59587;SDS011;45412;54.472;18.464;2022-11-14T05:07:53;15.60;;;7.20;;
59587;SDS011;45412;54.472;18.464;2022-11-14T05:11:00;15.00;;;7.20;;
59587;SDS011;45412;54.472;18.464;2022-11-14T05:14:06;15.10;;;6.30;;
59587;SDS011;45412;54.472;18.464;2022-11-14T05:17:13;15.00;;;6.40;;
59587;SDS011;45412;54.472;18.464;2022-11-14T05:20:20;14.80;;;7.00;;
59587;SDS011;45412;54.472;18.464;2022-11-14T05:23:26;14.90;;;6.70;;
59587;SDS011;45412;54.472;18.464;2022-11-14T05:26:33;16.00;;;7.40;;
59587;SDS011;45412;54.472;18.464;2022-11-14T05:29:39;13.90;;;5.70;;
59587;SDS011;45412;54.472;18.464;2022-11-14T05:32:46;15.70;;;6.90;;
59587;SDS011;45412;54.472;18.464;2022-11-14T05:35:52;13.20;;;6.10;;
59587;SDS011;45412;54.472;18.464;2022-11-14T05:38:58;14.00;;;7.40;;
59587;SDS011;45412;54.472;18.464;2022-11-14T05:42:04;16.10;;;7.90;;
59587;SDS011;45412;54.472;18.464;2022-11-14T05:45:11;18.40;;;7.90;;
59587;SDS011;45412;54.472;18.464;2022-11-14T05:48:18;17.20;;;7.10;;
59587;SDS011;45412;54.472;18.464;2022-11-14T05:51:24;19.30;;;7.20;;
59587;SDS011;45412;54.472;18.464;2022-11-14T05:54:30;14.90;;;7.40;;
59587;SDS011;45412;54.472;18.464;2022-11-14T05:57:37;18.30;;;8.00;;
59587;SDS011;45412;54.472;18.464;2022-11-14T06:00:44;17.70;;;7.90;;
59587;SDS011;45412;54.472;18.464;2022-11-14T06:03:58;18.10;;;8.10;;
59587;SDS011;45412;54.472;18.464;2022-11-14T06:07:04;21.30;;;7.80;;
59587;SDS011;45412;54.472;18.464;2022-11-14T06:10:11;19.40;;;8.40;;
59587;SDS011;45412;54.472;18.464;2022-11-14T06:13:18;18.50;;;8.10;;
59587;SDS011;45412;54.472;18.464;2022-11-14T06:16:25;20.30;;;8.30;;
59587;SDS011;45412;54.472;18.464;2022-11-14T06:19:31;19.50;;;8.40;;
59587;SDS011;45412;54.472;18.464;2022-11-14T06:22:39;20.00;;;9.10;;
59587;SDS011;45412;54.472;18.464;2022-11-14T06:25:46;21.20;;;9.10;;
59587;SDS011;45412;54.472;18.464;2022-11-14T06:28:52;22.00;;;9.60;;
59587;SDS011;45412;54.472;18.464;2022-11-14T06:31:59;21.10;;;8.80;;
59587;SDS011;45412;54.472;18.464;2022-11-14T06:35:05;24.10;;;10.70;;
59587;SDS011;45412;54.472;18.464;2022-11-14T06:38:13;22.20;;;10.70;;
59587;SDS011;45412;54.472;18.464;2022-11-14T06:41:20;23.10;;;10.20;;
59587;SDS011;45412;54.472;18.464;2022-11-14T06:44:28;21.50;;;10.70;;
59587;SDS011;45412;54.472;18.464;2022-11-14T06:47:36;26.30;;;10.60;;
59587;SDS011;45412;54.472;18.464;2022-11-14T06:50:43;23.90;;;10.80;;
59587;SDS011;45412;54.472;18.464;2022-11-14T06:53:49;26.30;;;11.20;;
59587;SDS011;45412;54.472;18.464;2022-11-14T06:56:55;23.90;;;11.30;;
59587;SDS011;45412;54.472;18.464;2022-11-14T07:00:03;26.00;;;11.80;;
59587;SDS011;45412;54.472;18.464;2022-11-14T07:03:09;20.70;;;10.30;;
59587;SDS011;45412;54.472;18.464;2022-11-14T07:06:21;27.10;;;11.70;;
59587;SDS011;45412;54.472;18.464;2022-11-14T07:09:29;24.10;;;10.60;;
59587;SDS011;45412;54.472;18.464;2022-11-14T07:12:35;28.00;;;13.90;;
59587;SDS011;45412;54.472;18.464;2022-11-14T07:15:52;24.30;;;11.40;;
59587;SDS011;45412;54.472;18.464;2022-11-14T07:18:59;27.10;;;11.80;;
59587;SDS011;45412;54.472;18.464;2022-11-14T07:22:06;22.80;;;10.70;;
59587;SDS011;45412;54.472;18.464;2022-11-14T07:25:13;22.40;;;11.20;;
59587;SDS011;45412;54.472;18.464;2022-11-14T07:28:19;25.70;;;12.10;;
59587;SDS011;45412;54.472;18.464;2022-11-14T07:31:26;24.10;;;12.40;;
59587;SDS011;45412;54.472;18.464;2022-11-14T07:34:32;26.00;;;11.70;;
59587;SDS011;45412;54.472;18.464;2022-11-14T07:37:39;26.80;;;12.90;;
59587;SDS011;45412;54.472;18.464;2022-11-14T07:40:56;25.40;;;12.40;;
59587;SDS011;45412;54.472;18.464;2022-11-14T07:44:05;25.10;;;12.10;;
59587;SDS011;45412;54.472;18.464;2022-11-14T07:47:11;29.10;;;12.80;;
59587;SDS011;45412;54.472;18.464;2022-11-14T07:50:18;27.40;;;12.50;;
59587;SDS011;45412;54.472;18.464;2022-11-14T07:53:26;25.90;;;11.80;;
59587;SDS011;45412;54.472;18.464;2022-11-14T07:56:33;28.50;;;12.80;;
59587;SDS011;45412;54.472;18.464;2022-11-14T07:59:39;27.80;;;13.40;;
59587;SDS011;45412;54.472;18.464;2022-11-14T08:02:46;30.00;;;12.20;;
59587;SDS011;45412;54.472;18.464;2022-11-14T08:06:03;23.90;;;12.00;;
59587;SDS011;45412;54.472;18.464;2022-11-14T08:09:12;26.90;;;12.70;;
59587;SDS011;45412;54.472;18.464;2022-11-14T08:12:18;25.30;;;11.80;;
59587;SDS011;45412;54.472;18.464;2022-11-14T08:15:24;22.10;;;10.20;;
59587;SDS011;45412;54.472;18.464;2022-11-14T08:18:31;25.60;;;12.40;;
59587;SDS011;45412;54.472;18.464;2022-11-14T08:21:38;26.20;;;12.60;;
59587;SDS011;45412;54.472;18.464;2022-11-14T08:24:44;25.80;;;11.10;;
59587;SDS011;45412;54.472;18.464;2022-11-14T08:27:52;23.50;;;11.40;;
59587;SDS011;45412;54.472;18.464;2022-11-14T08:31:03;24.00;;;10.90;;
59587;SDS011;45412;54.472;18.464;2022-11-14T08:34:09;23.10;;;11.30;;
59587;SDS011;45412;54.472;18.464;2022-11-14T08:37:16;21.30;;;9.80;;
59587;SDS011;45412;54.472;18.464;2022-11-14T08:40:23;20.80;;;10.20;;
59587;SDS011;45412;54.472;18.464;2022-11-14T08:43:30;21.80;;;10.30;;
59587;SDS011;45412;54.472;18.464;2022-11-14T08:46:37;21.00;;;10.60;;
59587;SDS011;45412;54.472;18.464;2022-11-14T08:49:46;22.60;;;11.30;;
59587;SDS011;45412;54.472;18.464;2022-11-14T08:52:53;20.20;;;10.00;;
59587;SDS011;45412;54.472;18.464;2022-11-14T08:55:59;22.30;;;10.90;;
59587;SDS011;45412;54.472;18.464;2022-11-14T08:59:06;21.70;;;10.60;;
59587;SDS011;45412;54.472;18.464;2022-11-14T09:02:12;19.10;;;9.30;;
59587;SDS011;45412;54.472;18.464;2022-11-14T09:05:18;19.20;;;9.60;;
59587;SDS011;45412;54.472;18.464;2022-11-14T09:08:25;18.80;;;9.00;;
59587;SDS011;45412;54.472;18.464;2022-11-14T09:11:33;18.30;;;9.30;;
59587;SDS011;45412;54.472;18.464;2022-11-14T09:14:39;19.40;;;9.60;;
59587;SDS011;45412;54.472;18.464;2022-11-14T09:17:45;17.50;;;8.70;;
59587;SDS011;45412;54.472;18.464;2022-11-14T09:20:52;19.70;;;9.60;;
59587;SDS011;45412;54.472;18.464;2022-11-14T09:24:00;19.10;;;9.40;;
59587;SDS011;45412;54.472;18.464;2022-11-14T09:27:07;18.90;;;9.30;;
59587;SDS011;45412;54.472;18.464;2022-11-14T09:30:14;16.90;;;8.70;;
59587;SDS011;45412;54.472;18.464;2022-11-14T09:33:20;18.50;;;8.90;;
59587;SDS011;45412;54.472;18.464;2022-11-14T09:36:26;17.30;;;8.90;;
59587;SDS011;45412;54.472;18.464;2022-11-14T09:39:32;19.70;;;8.70;;
59587;SDS011;45412;54.472;18.464;2022-11-14T09:43:08;18.30;;;9.60;;
59587;SDS011;45412;54.472;18.464;2022-11-14T09:49:55;19.70;;;9.50;;
59587;SDS011;45412;54.472;18.464;2022-11-14T09:53:15;16.80;;;8.50;;
59587;SDS011;45412;54.472;18.464;2022-11-14T09:56:33;19.50;;;9.70;;
59587;SDS011;45412;54.472;18.464;2022-11-14T09:59:39;15.40;;;8.10;;
59587;SDS011;45412;54.472;18.464;2022-11-14T10:03:04;16.10;;;7.60;;
59587;SDS011;45412;54.472;18.464;2022-11-14T10:06:42;15.10;;;7.70;;
59587;SDS011;45412;54.472;18.464;2022-11-14T10:10:08;15.00;;;7.20;;
59587;SDS011;45412;54.472;18.464;2022-11-14T10:20:31;12.90;;;7.10;;
59587;SDS011;45412;54.472;18.464;2022-11-14T10:27:35;13.40;;;7.10;;
59587;SDS011;45412;54.472;18.464;2022-11-14T10:31:03;12.00;;;6.20;;
59587;SDS011;45412;54.472;18.464;2022-11-14T10:34:22;14.60;;;7.30;;
59587;SDS011;45412;54.472;18.464;2022-11-14T10:41:13;13.80;;;6.50;;
59587;SDS011;45412;54.472;18.464;2022-11-14T10:44:56;14.60;;;7.30;;
59587;SDS011;45412;54.472;18.464;2022-11-14T10:48:12;13.30;;;6.80;;
59587;SDS011;45412;54.472;18.464;2022-11-14T10:51:30;13.70;;;6.60;;
59587;SDS011;45412;54.472;18.464;2022-11-14T10:58:01;13.10;;;6.70;;
59587;SDS011;45412;54.472;18.464;2022-11-14T11:01:39;13.40;;;7.80;;
59587;SDS011;45412;54.472;18.464;2022-11-14T11:04:47;12.30;;;6.70;;
59587;SDS011;45412;54.472;18.464;2022-11-14T11:07:57;12.60;;;6.70;;
59587;SDS011;45412;54.472;18.464;2022-11-14T11:11:52;14.30;;;7.20;;
59587;SDS011;45412;54.472;18.464;2022-11-14T11:15:27;15.20;;;8.00;;
59587;SDS011;45412;54.472;18.464;2022-11-14T11:18:36;18.40;;;7.90;;
59587;SDS011;45412;54.472;18.464;2022-11-14T11:21:48;14.10;;;8.10;;
59587;SDS011;45412;54.472;18.464;2022-11-14T11:24:57;13.00;;;6.30;;
59587;SDS011;45412;54.472;18.464;2022-11-14T11:28:05;15.80;;;8.40;;
59587;SDS011;45412;54.472;18.464;2022-11-14T11:31:17;16.30;;;9.60;;
59587;SDS011;45412;54.472;18.464;2022-11-14T11:34:30;18.90;;;9.20;;
59587;SDS011;45412;54.472;18.464;2022-11-14T11:37:55;17.00;;;9.10;;
59587;SDS011;45412;54.472;18.464;2022-11-14T11:45:00;18.00;;;10.20;;
59587;SDS011;45412;54.472;18.464;2022-11-14T11:48:22;18.20;;;9.70;;
59587;SDS011;45412;54.472;18.464;2022-11-14T11:51:40;17.50;;;10.00;;
59587;SDS011;45412;54.472;18.464;2022-11-14T12:01:41;17.40;;;10.10;;
59587;SDS011;45412;54.472;18.464;2022-11-14T12:04:48;19.10;;;10.70;;
59587;SDS011;45412;54.472;18.464;2022-11-14T12:11:15;17.70;;;10.20;;
59587;SDS011;45412;54.472;18.464;2022-11-14T12:18:30;18.00;;;9.90;;
59587;SDS011;45412;54.472;18.464;2022-11-14T12:29:00;21.60;;;11.90;;
59587;SDS011;45412;54.472;18.464;2022-11-14T12:32:40;20.10;;;11.30;;
59587;SDS011;45412;54.472;18.464;2022-11-14T12:35:54;18.30;;;10.10;;
59587;SDS011;45412;54.472;18.464;2022-11-14T12:39:02;18.80;;;10.10;;
59587;SDS011;45412;54.472;18.464;2022-11-14T12:42:10;22.20;;;12.00;;
59587;SDS011;45412;54.472;18.464;2022-11-14T12:48:47;20.20;;;11.40;;
59587;SDS011;45412;54.472;18.464;2022-11-14T12:51:53;19.20;;;11.20;;
59587;SDS011;45412;54.472;18.464;2022-11-14T12:55:00;18.80;;;10.30;;
59587;SDS011;45412;54.472;18.464;2022-11-14T13:16:00;21.60;;;11.30;;
59587;SDS011;45412;54.472;18.464;2022-11-14T13:19:27;20.90;;;11.40;;
59587;SDS011;45412;54.472;18.464;2022-11-14T13:22:51;20.50;;;10.80;;
59587;SDS011;45412;54.472;18.464;2022-11-14T13:35:50;22.30;;;12.50;;
59587;SDS011;45412;54.472;18.464;2022-11-14T13:42:20;22.30;;;12.30;;
59587;SDS011;45412;54.472;18.464;2022-11-14T13:52:54;18.40;;;10.50;;
59587;SDS011;45412;54.472;18.464;2022-11-14T14:03:40;18.40;;;11.20;;
59587;SDS011;45412;54.472;18.464;2022-11-14T14:18:00;20.20;;;12.10;;
59587;SDS011;45412;54.472;18.464;2022-11-14T14:25:25;21.90;;;13.40;;
59587;SDS011;45412;54.472;18.464;2022-11-14T14:32:18;17.80;;;10.00;;
59587;SDS011;45412;54.472;18.464;2022-11-14T14:35:27;22.90;;;13.60;;
59587;SDS011;45412;54.472;18.464;2022-11-14T14:38:45;22.90;;;14.90;;
59587;SDS011;45412;54.472;18.464;2022-11-14T14:41:54;23.90;;;14.90;;
59587;SDS011;45412;54.472;18.464;2022-11-14T14:45:03;23.20;;;13.30;;
59587;SDS011;45412;54.472;18.464;2022-11-14T14:48:24;23.90;;;14.30;;
59587;SDS011;45412;54.472;18.464;2022-11-14T14:51:35;21.60;;;13.40;;
59587;SDS011;45412;54.472;18.464;2022-11-14T14:54:52;24.00;;;14.00;;
59587;SDS011;45412;54.472;18.464;2022-11-14T14:58:24;23.60;;;15.00;;
59587;SDS011;45412;54.472;18.464;2022-11-14T15:01:36;25.40;;;15.50;;
59587;SDS011;45412;54.472;18.464;2022-11-14T15:04:43;23.60;;;13.90;;
59587;SDS011;45412;54.472;18.464;2022-11-14T15:07:51;24.30;;;14.10;;
59587;SDS011;45412;54.472;18.464;2022-11-14T15:11:00;22.90;;;14.10;;
59587;SDS011;45412;54.472;18.464;2022-11-14T15:14:13;24.30;;;14.70;;
59587;SDS011;45412;54.472;18.464;2022-11-14T15:17:22;26.30;;;15.60;;
59587;SDS011;45412;54.472;18.464;2022-11-14T15:20:28;27.50;;;17.10;;
59587;SDS011;45412;54.472;18.464;2022-11-14T15:23:39;25.20;;;14.60;;
59587;SDS011;45412;54.472;18.464;2022-11-14T15:26:50;28.90;;;16.90;;
59587;SDS011;45412;54.472;18.464;2022-11-14T15:30:04;32.20;;;18.10;;
59587;SDS011;45412;54.472;18.464;2022-11-14T15:33:58;31.10;;;17.50;;
59587;SDS011;45412;54.472;18.464;2022-11-14T15:40:21;35.60;;;21.30;;
59587;SDS011;45412;54.472;18.464;2022-11-14T15:46:48;28.00;;;16.70;;
59587;SDS011;45412;54.472;18.464;2022-11-14T15:50:03;35.40;;;20.20;;
59587;SDS011;45412;54.472;18.464;2022-11-14T15:53:25;35.20;;;22.00;;
59587;SDS011;45412;54.472;18.464;2022-11-14T15:56:35;32.10;;;18.20;;
59587;SDS011;45412;54.472;18.464;2022-11-14T15:59:41;38.30;;;21.70;;
59587;SDS011;45412;54.472;18.464;2022-11-14T16:02:53;32.40;;;18.30;;
59587;SDS011;45412;54.472;18.464;2022-11-14T16:06:02;36.60;;;19.40;;
59587;SDS011;45412;54.472;18.464;2022-11-14T16:09:18;35.90;;;19.30;;
59587;SDS011;45412;54.472;18.464;2022-11-14T16:12:27;32.70;;;19.10;;
59587;SDS011;45412;54.472;18.464;2022-11-14T16:15:34;34.90;;;20.30;;
59587;SDS011;45412;54.472;18.464;2022-11-14T16:18:42;35.80;;;19.90;;
59587;SDS011;45412;54.472;18.464;2022-11-14T16:21:49;35.30;;;19.10;;
59587;SDS011;45412;54.472;18.464;2022-11-14T16:24:58;34.50;;;19.30;;
59587;SDS011;45412;54.472;18.464;2022-11-14T16:28:05;35.00;;;18.70;;
59587;SDS011;45412;54.472;18.464;2022-11-14T16:31:13;37.50;;;21.10;;
59587;SDS011;45412;54.472;18.464;2022-11-14T16:34:22;34.50;;;20.70;;
59587;SDS011;45412;54.472;18.464;2022-11-14T16:37:32;36.80;;;20.30;;
59587;SDS011;45412;54.472;18.464;2022-11-14T16:40:41;37.20;;;21.70;;
59587;SDS011;45412;54.472;18.464;2022-11-14T16:43:49;33.30;;;18.60;;
59587;SDS011;45412;54.472;18.464;2022-11-14T16:46:58;34.40;;;20.20;;
59587;SDS011;45412;54.472;18.464;2022-11-14T16:50:06;40.30;;;23.00;;
59587;SDS011;45412;54.472;18.464;2022-11-14T16:53:16;38.50;;;20.90;;
59587;SDS011;45412;54.472;18.464;2022-11-14T16:56:23;41.30;;;22.90;;
59587;SDS011;45412;54.472;18.464;2022-11-14T16:59:30;37.60;;;20.50;;
59587;SDS011;45412;54.472;18.464;2022-11-14T17:02:39;33.30;;;18.40;;
59587;SDS011;45412;54.472;18.464;2022-11-14T17:05:48;37.40;;;21.40;;
59587;SDS011;45412;54.472;18.464;2022-11-14T17:08:57;38.70;;;23.00;;
59587;SDS011;45412;54.472;18.464;2022-11-14T17:12:14;35.00;;;20.10;;
59587;SDS011;45412;54.472;18.464;2022-11-14T17:15:22;36.60;;;21.30;;
59587;SDS011;45412;54.472;18.464;2022-11-14T17:18:29;33.70;;;19.30;;
59587;SDS011;45412;54.472;18.464;2022-11-14T17:21:43;40.40;;;23.10;;
59587;SDS011;45412;54.472;18.464;2022-11-14T17:24:53;38.70;;;21.70;;
59587;SDS011;45412;54.472;18.464;2022-11-14T17:28:00;35.90;;;18.80;;
59587;SDS011;45412;54.472;18.464;2022-11-14T17:31:06;35.00;;;20.70;;
59587;SDS011;45412;54.472;18.464;2022-11-14T17:34:14;35.00;;;19.60;;
59587;SDS011;45412;54.472;18.464;2022-11-14T17:37:20;36.40;;;20.50;;
59587;SDS011;45412;54.472;18.464;2022-11-14T17:40:27;34.70;;;19.40;;
59587;SDS011;45412;54.472;18.464;2022-11-14T17:43:34;38.60;;;21.50;;
59587;SDS011;45412;54.472;18.464;2022-11-14T17:46:46;39.10;;;22.10;;
59587;SDS011;45412;54.472;18.464;2022-11-14T17:49:53;40.20;;;21.70;;
59587;SDS011;45412;54.472;18.464;2022-11-14T17:53:00;36.30;;;18.50;;
59587;SDS011;45412;54.472;18.464;2022-11-14T17:56:09;40.00;;;22.30;;
59587;SDS011;45412;54.472;18.464;2022-11-14T17:59:19;38.10;;;21.30;;
59587;SDS011;45412;54.472;18.464;2022-11-14T18:02:27;36.20;;;21.80;;
59587;SDS011;45412;54.472;18.464;2022-11-14T18:05:34;40.60;;;23.20;;
59587;SDS011;45412;54.472;18.464;2022-11-14T18:08:45;35.80;;;21.20;;
59587;SDS011;45412;54.472;18.464;2022-11-14T18:11:52;34.10;;;19.30;;
59587;SDS011;45412;54.472;18.464;2022-11-14T18:14:58;36.60;;;19.30;;
59587;SDS011;45412;54.472;18.464;2022-11-14T18:18:05;35.30;;;18.90;;
59587;SDS011;45412;54.472;18.464;2022-11-14T18:21:25;43.60;;;23.20;;
59587;SDS011;45412;54.472;18.464;2022-11-14T18:24:34;39.70;;;21.90;;
59587;SDS011;45412;54.472;18.464;2022-11-14T18:27:41;41.80;;;23.60;;
59587;SDS011;45412;54.472;18.464;2022-11-14T18:30:54;42.20;;;24.30;;
59587;SDS011;45412;54.472;18.464;2022-11-14T18:34:01;41.50;;;22.30;;
59587;SDS011;45412;54.472;18.464;2022-11-14T18:37:10;40.40;;;22.20;;
59587;SDS011;45412;54.472;18.464;2022-11-14T18:40:19;39.60;;;22.00;;
59587;SDS011;45412;54.472;18.464;2022-11-14T18:43:26;39.50;;;21.80;;
59587;SDS011;45412;54.472;18.464;2022-11-14T18:46:37;37.70;;;21.20;;
59587;SDS011;45412;54.472;18.464;2022-11-14T18:49:47;38.00;;;20.40;;
59587;SDS011;45412;54.472;18.464;2022-11-14T18:52:53;42.10;;;23.00;;
59587;SDS011;45412;54.472;18.464;2022-11-14T18:56:08;38.40;;;20.00;;
59587;SDS011;45412;54.472;18.464;2022-11-14T18:59:17;44.00;;;22.30;;
59587;SDS011;45412;54.472;18.464;2022-11-14T19:02:24;37.70;;;20.80;;
59587;SDS011;45412;54.472;18.464;2022-11-14T19:05:34;38.40;;;20.10;;
59587;SDS011;45412;54.472;18.464;2022-11-14T19:08:41;39.30;;;21.60;;
59587;SDS011;45412;54.472;18.464;2022-11-14T19:11:48;38.90;;;21.30;;
59587;SDS011;45412;54.472;18.464;2022-11-14T19:15:13;45.70;;;24.10;;
59587;SDS011;45412;54.472;18.464;2022-11-14T19:18:20;43.80;;;23.40;;
59587;SDS011;45412;54.472;18.464;2022-11-14T19:21:27;44.40;;;23.30;;
59587;SDS011;45412;54.472;18.464;2022-11-14T19:24:34;38.30;;;20.20;;
59587;SDS011;45412;54.472;18.464;2022-11-14T19:27:41;38.00;;;20.20;;
59587;SDS011;45412;54.472;18.464;2022-11-14T19:30:47;41.40;;;22.50;;
59587;SDS011;45412;54.472;18.464;2022-11-14T19:33:53;44.70;;;23.00;;
59587;SDS011;45412;54.472;18.464;2022-11-14T19:37:00;46.20;;;24.60;;
59587;SDS011;45412;54.472;18.464;2022-11-14T19:40:06;35.70;;;18.30;;
59587;SDS011;45412;54.472;18.464;2022-11-14T19:43:13;39.30;;;21.30;;
59587;SDS011;45412;54.472;18.464;2022-11-14T19:46:20;46.50;;;23.50;;
59587;SDS011;45412;54.472;18.464;2022-11-14T19:49:29;47.10;;;25.40;;
59587;SDS011;45412;54.472;18.464;2022-11-14T19:52:36;45.60;;;24.20;;
59587;SDS011;45412;54.472;18.464;2022-11-14T19:55:42;44.00;;;23.20;;
59587;SDS011;45412;54.472;18.464;2022-11-14T19:58:50;43.50;;;22.10;;
59587;SDS011;45412;54.472;18.464;2022-11-14T20:01:57;39.90;;;21.00;;
59587;SDS011;45412;54.472;18.464;2022-11-14T20:05:06;38.40;;;19.50;;
59587;SDS011;45412;54.472;18.464;2022-11-14T20:08:12;39.60;;;19.40;;
59587;SDS011;45412;54.472;18.464;2022-11-14T20:11:21;43.80;;;22.80;;
59587;SDS011;45412;54.472;18.464;2022-11-14T20:14:31;38.40;;;19.20;;
59587;SDS011;45412;54.472;18.464;2022-11-14T20:17:37;36.20;;;17.50;;
59587;SDS011;45412;54.472;18.464;2022-11-14T20:20:44;45.40;;;22.60;;
59587;SDS011;45412;54.472;18.464;2022-11-14T20:23:50;41.00;;;21.10;;